Time;durP1;ratioP1;P1;durP2;ratioP2;P2;SDS_P1;SDS_P2;PMS_P1;PMS_P2;Temp;Humidity;BMP_temperature;BMP_pressure;BME280_temperature;BME280_humidity;BME280_pressure;Samples;Min_cycle;Max_cycle;Signal;HPM_P1;HPM_P2
2020/12/13 00:01:14;;;;;;;23.47;12.63;;;;;;;-0.85;100.00;96667.81;1848946;77;21028;-75
2020/12/13 00:03:41;;;;;;;24.93;12.40;;;;;;;-0.82;100.00;96671.14;1850145;77;20898;-76
2020/12/13 00:06:09;;;;;;;22.43;12.73;;;;;;;-0.85;100.00;96669.55;1848859;77;21188;-74
2020/12/13 00:08:36;;;;;;;27.57;12.63;;;;;;;-0.86;100.00;96664.89;1850014;77;20981;-74
2020/12/13 00:11:03;;;;;;;22.43;12.97;;;;;;;-0.88;100.00;96664.15;1848891;77;21289;-75
2020/12/13 00:13:30;;;;;;;25.73;14.43;;;;;;;-0.91;100.00;96670.69;1850001;77;20898;-75
2020/12/13 00:15:57;;;;;;;24.33;13.30;;;;;;;-0.95;100.00;96669.17;1848901;77;20915;-75
2020/12/13 00:18:24;;;;;;;22.73;12.30;;;;;;;-0.95;100.00;96665.34;1850102;77;22121;-75
2020/12/13 00:20:52;;;;;;;21.87;11.40;;;;;;;-0.97;100.00;96663.31;1848861;77;20938;-74
2020/12/13 00:23:19;;;;;;;25.03;12.33;;;;;;;-0.98;100.00;96675.70;1850059;77;20867;-75
2020/12/13 00:25:46;;;;;;;28.63;12.60;;;;;;;-0.99;100.00;96671.50;1848852;77;20958;-75
2020/12/13 00:28:13;;;;;;;22.67;12.43;;;;;;;-1.01;100.00;96672.00;1850065;77;20895;-74
2020/12/13 00:30:40;;;;;;;26.47;13.33;;;;;;;-1.01;100.00;96672.45;1848881;77;21253;-75
2020/12/13 00:33:07;;;;;;;24.53;13.27;;;;;;;-0.98;100.00;96672.33;1849970;77;20989;-75
2020/12/13 00:35:34;;;;;;;23.03;11.03;;;;;;;-0.95;100.00;96673.00;1827478;77;21310;-74
2020/12/13 00:38:02;;;;;;;23.67;13.43;;;;;;;-0.90;100.00;96676.16;1822473;78;20858;-75
2020/12/13 00:40:29;;;;;;;21.77;11.40;;;;;;;-0.89;100.00;96680.81;1835008;77;21302;-75
2020/12/13 00:42:56;;;;;;;20.20;10.77;;;;;;;-0.90;100.00;96677.44;1822496;78;21105;-76
2020/12/13 00:45:24;;;;;;;25.63;12.20;;;;;;;-0.95;100.00;96678.10;1834968;78;21407;-75
2020/12/13 00:47:51;;;;;;;21.53;11.30;;;;;;;-1.01;100.00;96677.56;1822425;78;21304;-75
2020/12/13 00:50:19;;;;;;;24.87;12.67;;;;;;;-1.05;100.00;96683.27;1834943;77;20943;-75
2020/12/13 00:52:46;;;;;;;27.60;15.07;;;;;;;-1.05;100.00;96678.17;1797387;78;20988;-75
2020/12/13 00:55:13;;;;;;;23.57;12.43;;;;;;;-1.03;100.00;96687.84;1834931;78;21185;-76
2020/12/13 00:57:41;;;;;;;24.07;11.83;;;;;;;-1.00;100.00;96686.87;1822420;78;21272;-75
2020/12/13 01:00:08;;;;;;;22.90;11.50;;;;;;;-1.00;100.00;96686.41;1835043;77;20950;-75
2020/12/13 01:02:35;;;;;;;24.07;12.83;;;;;;;-0.95;100.00;96688.31;1822424;78;20898;-75
2020/12/13 01:05:02;;;;;;;23.27;12.00;;;;;;;-0.90;100.00;96687.66;1835011;78;20918;-75
2020/12/13 01:07:30;;;;;;;20.93;11.17;;;;;;;-0.86;100.00;96688.31;1822473;78;21267;-75
2020/12/13 01:09:57;;;;;;;20.30;10.57;;;;;;;-0.88;100.00;96687.58;1834915;78;21385;-75
2020/12/13 01:12:24;;;;;;;19.03;9.10;;;;;;;-0.91;100.00;96690.25;1822449;78;21414;-76
2020/12/13 01:14:51;;;;;;;20.67;10.07;;;;;;;-0.93;99.77;96683.95;1822388;78;20909;-75
2020/12/13 01:17:18;;;;;;;17.97;8.67;;;;;;;-0.93;99.58;96683.95;1835004;78;20907;-80
2020/12/13 01:19:47;;;;;;;15.63;8.10;;;;;;;-0.95;99.45;96679.83;1822507;77;21186;-81
2020/12/13 01:22:14;;;;;;;19.97;9.63;;;;;;;-0.95;99.23;96689.59;1834932;78;21014;-81
2020/12/13 01:24:42;;;;;;;18.13;9.27;;;;;;;-0.95;99.19;96685.76;1822539;78;20862;-80
2020/12/13 01:27:09;;;;;;;17.57;8.77;;;;;;;-0.94;99.11;96681.02;1834957;78;21293;-81
2020/12/13 01:29:36;;;;;;;17.47;7.87;;;;;;;-0.91;99.15;96694.08;1822462;78;21390;-81
2020/12/13 01:32:04;;;;;;;15.97;7.57;;;;;;;-0.88;99.16;96686.30;1834953;78;21193;-82
2020/12/13 01:34:31;;;;;;;15.53;8.00;;;;;;;-0.80;99.28;96691.04;1832660;77;20914;-82
2020/12/13 01:37:00;;;;;;;16.53;8.53;;;;;;;-0.74;98.96;96689.47;1864417;77;20902;-80
2020/12/13 01:39:28;;;;;;;16.43;8.77;;;;;;;-0.70;98.73;96689.69;1847608;77;20957;-82
2020/12/13 01:41:59;;;;;;;15.00;7.67;;;;;;;-0.69;98.41;96692.16;1864435;77;20989;-81
2020/12/13 01:44:33;;;;;;;17.20;8.40;;;;;;;-0.66;98.27;96686.92;1847635;77;21189;-80
2020/12/13 01:47:01;;;;;;;14.90;7.60;;;;;;;-0.66;97.85;96683.55;1864440;77;20929;-80
2020/12/13 01:49:33;;;;;;;17.87;9.17;;;;;;;-0.69;97.58;96688.78;1847668;77;21344;-83
2020/12/13 01:54:25;;;;;;;19.83;10.03;;;;;;;-0.78;97.50;96686.67;1847620;77;20985;-81
2020/12/13 01:56:53;;;;;;;19.87;10.33;;;;;;;-0.82;97.73;96687.74;1864473;77;21366;-80
2020/12/13 01:59:21;;;;;;;21.73;10.47;;;;;;;-0.82;98.04;96689.84;1855563;76;21316;-81
2020/12/13 02:01:52;;;;;;;20.47;11.03;;;;;;;-0.79;98.19;96691.41;1847586;77;20910;-81
2020/12/13 02:04:21;;;;;;;22.57;12.27;;;;;;;-0.78;98.30;96678.56;1847646;77;21301;-82
2020/12/13 02:06:53;;;;;;;21.30;11.13;;;;;;;-0.78;98.29;96686.67;1847676;77;20910;-83
2020/12/13 02:09:24;;;;;;;23.00;12.07;;;;;;;-0.80;98.33;96682.10;1847691;77;22115;-82
2020/12/13 02:11:53;;;;;;;20.80;9.50;;;;;;;-0.80;98.46;96686.76;1847688;77;20926;-74
2020/12/13 02:14:20;;;;;;;24.63;12.37;;;;;;;-0.83;98.52;96679.67;1864416;77;20914;-75
2020/12/13 02:16:48;;;;;;;22.00;11.47;;;;;;;-0.86;98.61;96687.87;1847568;77;20981;-74
2020/12/13 02:19:16;;;;;;;26.67;12.73;;;;;;;-0.90;98.85;96682.55;1864376;77;21395;-74
2020/12/13 02:21:45;;;;;;;23.90;11.73;;;;;;;-0.94;98.99;96680.20;1847675;77;21894;-75
2020/12/13 02:24:12;;;;;;;21.10;11.00;;;;;;;-0.97;99.17;96678.63;1864294;77;20922;-74
2020/12/13 02:26:41;;;;;;;21.33;11.07;;;;;;;-0.95;99.21;96687.03;1847588;77;20906;-75
2020/12/13 02:29:08;;;;;;;21.50;11.43;;;;;;;-0.97;99.24;96682.46;1864292;77;21363;-75
2020/12/13 02:31:36;;;;;;;36.60;20.50;;;;;;;-0.98;99.35;96680.81;1847631;77;20946;-75
2020/12/13 02:34:04;;;;;;;25.30;11.47;;;;;;;-0.94;99.54;96677.65;1862907;76;21349;-74
2020/12/13 02:36:32;;;;;;;21.87;11.23;;;;;;;-0.92;99.56;96678.39;1822372;78;20902;-74
2020/12/13 02:39:00;;;;;;;24.80;13.20;;;;;;;-0.93;99.39;96684.41;1834892;77;20868;-74
2020/12/13 02:41:27;;;;;;;22.67;11.53;;;;;;;-0.92;99.42;96684.77;1822455;78;20980;-74
2020/12/13 02:43:54;;;;;;;21.43;12.20;;;;;;;-0.92;99.46;96686.05;1834908;78;21148;-74
2020/12/13 02:46:21;;;;;;;22.63;12.03;;;;;;;-0.92;99.61;96685.60;1822435;78;21180;-76
2020/12/13 02:48:49;;;;;;;25.03;13.43;;;;;;;-0.90;99.64;96688.10;1834899;78;21093;-74
2020/12/13 02:51:16;;;;;;;20.67;11.23;;;;;;;-0.87;99.71;96688.77;1822472;78;20960;-74
2020/12/13 02:53:43;;;;;;;23.60;11.97;;;;;;;-0.84;99.61;96687.79;1834809;78;21085;-74
2020/12/13 02:56:10;;;;;;;20.30;11.37;;;;;;;-0.82;99.40;96686.46;1822518;78;20889;-74
2020/12/13 02:58:37;;;;;;;21.50;10.37;;;;;;;-0.78;99.49;96693.89;1834923;78;21337;-74
2020/12/13 03:01:05;;;;;;;21.90;10.87;;;;;;;-0.80;98.87;96689.31;1822275;78;21422;-74
2020/12/13 03:03:32;;;;;;;19.43;9.53;;;;;;;-0.79;99.11;96688.41;1834905;78;21325;-74
2020/12/13 03:05:59;;;;;;;19.27;9.13;;;;;;;-0.73;99.10;96691.13;1822489;78;20885;-80
2020/12/13 03:08:26;;;;;;;18.10;9.43;;;;;;;-0.71;98.74;96691.87;1834895;77;20951;-81
2020/12/13 03:10:55;;;;;;;15.70;8.20;;;;;;;-0.70;98.56;96691.79;1822379;78;20984;-81
2020/12/13 03:13:22;;;;;;;18.77;9.17;;;;;;;-0.69;98.24;96696.44;1834874;78;20927;-79
2020/12/13 03:15:50;;;;;;;18.63;9.20;;;;;;;-0.69;98.20;96701.55;1822340;78;20961;-79
2020/12/13 03:18:18;;;;;;;16.40;9.23;;;;;;;-0.69;98.21;96699.00;1834905;78;20963;-81
2020/12/13 03:20:45;;;;;;;20.10;9.13;;;;;;;-0.68;98.16;96697.64;1822425;78;21020;-81
2020/12/13 03:23:12;;;;;;;17.43;9.57;;;;;;;-0.66;97.98;96701.42;1835117;78;21685;-80
2020/12/13 03:25:39;;;;;;;18.57;9.47;;;;;;;-0.63;98.12;96702.53;1822522;78;20925;-80
2020/12/13 03:28:06;;;;;;;19.10;9.57;;;;;;;-0.58;98.20;96704.39;1835068;78;20978;-81
2020/12/13 03:30:33;;;;;;;19.67;10.10;;;;;;;-0.54;97.73;96698.70;1822626;77;20940;-81
2020/12/13 03:33:00;;;;;;;20.10;10.30;;;;;;;-0.52;97.70;96710.94;1835060;78;20915;-81
2020/12/13 03:35:28;;;;;;;19.13;9.30;;;;;;;-0.51;97.38;96707.48;1836340;77;21479;-81
2020/12/13 03:37:55;;;;;;;18.43;9.67;;;;;;;-0.50;97.31;96697.64;1864408;77;21028;-81
2020/12/13 03:40:22;;;;;;;17.27;9.33;;;;;;;-0.50;97.30;96706.13;1828654;77;21071;-81
2020/12/13 03:42:49;;;;;;;18.23;9.43;;;;;;;-0.46;97.22;96707.64;1825082;78;20905;-81
2020/12/13 03:45:17;;;;;;;18.43;9.40;;;;;;;-0.43;97.22;96704.92;1825168;78;20977;-81
2020/12/13 03:47:46;;;;;;;20.30;9.57;;;;;;;-0.36;97.38;96706.28;1824560;78;22400;-80
2020/12/13 03:50:13;;;;;;;19.53;9.53;;;;;;;-0.26;97.31;96697.70;1825155;78;20929;-78
2020/12/13 03:52:41;;;;;;;22.77;10.17;;;;;;;-0.21;97.08;96708.98;1825128;78;20921;-81
2020/12/13 03:55:08;;;;;;;20.67;10.40;;;;;;;-0.17;96.73;96701.52;1825027;78;21135;-81
2020/12/13 03:57:35;;;;;;;19.43;10.07;;;;;;;-0.21;96.28;96696.20;1825222;78;21059;-79
2020/12/13 04:00:04;;;;;;;20.43;10.07;;;;;;;-0.22;96.38;96701.77;1825100;78;22100;-80
2020/12/13 04:02:33;;;;;;;20.70;9.60;;;;;;;-0.19;96.43;96704.16;1825174;78;21064;-81
2020/12/13 04:05:00;;;;;;;19.40;10.10;;;;;;;-0.16;96.24;96700.64;1825147;78;20874;-80
2020/12/13 04:07:27;;;;;;;18.00;9.47;;;;;;;-0.14;96.08;96706.50;1825067;78;20937;-81
2020/12/13 04:09:54;;;;;;;19.30;9.47;;;;;;;-0.15;95.72;96706.95;1825078;78;21009;-81
2020/12/13 04:12:21;;;;;;;17.67;10.00;;;;;;;-0.16;95.75;96703.20;1825166;78;21347;-80
2020/12/13 04:14:50;;;;;;;20.20;10.20;;;;;;;-0.14;95.80;96702.66;1824994;78;21064;-81
2020/12/13 04:17:19;;;;;;;22.30;11.20;;;;;;;-0.08;95.98;96704.92;1825145;78;21375;-82
2020/12/13 04:19:46;;;;;;;24.33;13.63;;;;;;;-0.03;95.80;96703.76;1825280;78;20984;-81
2020/12/13 04:22:13;;;;;;;20.63;10.50;;;;;;;0.01;95.49;96699.34;1825270;78;20885;-80
2020/12/13 04:24:40;;;;;;;18.40;9.60;;;;;;;-0.01;95.26;96702.39;1825102;78;21191;-81
2020/12/13 04:27:08;;;;;;;23.00;12.13;;;;;;;0.00;95.28;96700.24;1825085;78;21083;-81
2020/12/13 04:29:38;;;;;;;21.07;11.30;;;;;;;0.01;95.28;96698.06;1825087;78;20937;-80
2020/12/13 04:32:05;;;;;;;20.80;11.53;;;;;;;0.04;95.38;96697.06;1825149;78;21044;-81
2020/12/13 04:34:32;;;;;;;25.63;12.97;;;;;;;0.09;95.45;96696.39;1825051;78;21038;-81
2020/12/13 04:37:00;;;;;;;22.90;12.57;;;;;;;0.15;95.29;96694.31;1825074;78;21371;-80
2020/12/13 04:39:27;;;;;;;21.27;10.97;;;;;;;0.17;95.01;96695.09;1825064;78;21371;-79
2020/12/13 04:41:54;;;;;;;23.50;11.43;;;;;;;0.20;94.66;96700.48;1825045;78;21446;-80
2020/12/13 04:44:23;;;;;;;20.27;10.07;;;;;;;0.20;94.50;96700.03;1825075;78;20905;-81
2020/12/13 04:46:52;;;;;;;20.73;11.17;;;;;;;0.19;94.52;96703.50;1798088;78;21296;-81
2020/12/13 04:49:23;;;;;;;19.87;10.27;;;;;;;0.20;94.38;96701.77;1858624;77;21115;-82
2020/12/13 04:51:52;;;;;;;20.30;10.80;;;;;;;0.24;94.12;96704.06;1829050;78;20933;-80
2020/12/13 04:54:21;;;;;;;17.53;9.37;;;;;;;0.24;94.12;96704.06;1858739;77;20965;-80
2020/12/13 04:56:52;;;;;;;15.65;8.63;;;;;;;0.25;93.89;96704.47;1858646;77;21387;-79
2020/12/13 04:59:19;;;;;;;16.70;8.55;;;;;;;0.26;93.66;96703.55;1858753;76;20894;-82
2020/12/13 05:01:48;;;;;;;18.37;8.87;;;;;;;0.24;93.25;96700.69;1858743;77;21174;-80
2020/12/13 05:04:16;;;;;;;18.43;10.53;;;;;;;0.19;93.21;96702.22;1858714;77;21032;-85
2020/12/13 05:06:44;;;;;;;19.10;9.43;;;;;;;0.17;93.15;96705.31;1858856;76;20937;-81
2020/12/13 05:09:13;;;;;;;19.33;9.90;;;;;;;0.17;93.17;96701.94;1858802;77;21040;-84
2020/12/13 05:11:44;;;;;;;18.40;10.23;;;;;;;0.18;93.03;96707.41;1858831;77;20898;-82
2020/12/13 05:14:11;;;;;;;17.70;8.70;;;;;;;0.16;92.82;96706.19;1858680;76;21417;-80
2020/12/13 05:16:38;;;;;;;16.53;8.70;;;;;;;0.11;92.94;96706.90;1858652;77;21036;-82
2020/12/13 05:19:06;;;;;;;17.80;9.90;;;;;;;0.10;93.09;96698.03;1858657;77;20957;-83
2020/12/13 05:21:34;;;;;;;18.97;10.90;;;;;;;0.15;93.27;96707.10;1858765;77;20910;-81
2020/12/13 05:24:03;;;;;;;18.43;10.67;;;;;;;0.15;93.08;96707.10;1830881;77;20921;-80
2020/12/13 05:26:30;;;;;;;17.47;10.67;;;;;;;0.13;93.09;96702.52;1858663;76;21341;-81
2020/12/13 05:28:59;;;;;;;19.90;10.37;;;;;;;0.15;93.19;96707.10;1858597;77;21406;-80
2020/12/13 05:31:28;;;;;;;18.50;9.87;;;;;;;0.16;93.22;96708.75;1858778;77;20933;-80
2020/12/13 05:34:01;;;;;;;17.67;9.63;;;;;;;0.22;93.27;96711.45;1858592;77;21032;-82
2020/12/13 05:36:25;;;;;;;19.20;9.60;;;;;;;0.23;93.19;96703.70;1858093;76;21123;-81
2020/12/13 05:38:58;;;;;;;20.40;9.53;;;;;;;0.28;93.16;96704.75;1858676;77;21322;-81
2020/12/13 05:41:33;;;;;;;16.23;8.43;;;;;;;0.31;92.95;96703.75;1858594;77;20988;-80
2020/12/13 05:51:59;;;;;;;18.90;10.33;;;;;;;0.40;92.55;96709.66;1834799;77;22143;-80
2020/12/13 05:54:27;;;;;;;17.27;9.73;;;;;;;0.41;92.44;96710.03;1858620;76;20941;-80
2020/12/13 05:56:59;;;;;;;19.77;10.67;;;;;;;0.41;92.43;96706.20;1858731;77;21012;-80
2020/12/13 05:59:31;;;;;;;19.17;10.65;;;;;;;0.43;92.47;96708.24;1858778;77;21379;-80
2020/12/13 06:02:02;;;;;;;18.60;10.27;;;;;;;0.44;92.36;96707.33;1858686;77;20988;-81
2020/12/13 06:04:33;;;;;;;18.23;10.03;;;;;;;0.45;92.23;96709.80;1858613;77;21230;-80
2020/12/13 06:07:04;;;;;;;20.47;10.47;;;;;;;0.46;92.15;96710.63;1858655;77;21076;-81
2020/12/13 06:09:41;;;;;;;19.87;10.50;;;;;;;0.50;92.22;96707.02;1858735;77;21296;-80
2020/12/13 06:12:11;;;;;;;18.80;10.13;;;;;;;0.55;92.27;96702.46;1858684;77;21387;-80
2020/12/13 06:14:42;;;;;;;17.87;10.60;;;;;;;0.59;92.33;96710.36;1858666;77;20874;-80
2020/12/13 06:17:09;;;;;;;21.03;10.87;;;;;;;0.62;92.11;96717.86;1858683;77;21340;-82
2020/12/13 06:19:38;;;;;;;19.43;10.10;;;;;;;0.64;91.98;96714.77;1858633;77;21398;-81
2020/12/13 06:22:07;;;;;;;23.47;11.60;;;;;;;0.68;91.92;96715.44;1858557;77;20938;-80
2020/12/13 06:24:34;;;;;;;21.90;11.70;;;;;;;0.69;91.82;96716.63;1830388;77;20901;-80
2020/12/13 06:27:01;;;;;;;23.30;12.40;;;;;;;0.69;92.00;96713.25;1858615;77;20909;-80
2020/12/13 06:29:29;;;;;;;22.27;11.10;;;;;;;0.71;91.90;96710.97;1803644;77;21135;-82
2020/12/13 06:31:58;;;;;;;19.60;10.60;;;;;;;0.72;91.69;96713.90;1858773;77;21122;-84
2020/12/13 06:34:25;;;;;;;26.03;13.13;;;;;;;0.73;91.57;96715.55;1830247;77;20997;-81
2020/12/13 06:36:53;;;;;;;27.77;12.65;;;;;;;0.72;91.26;96714.36;1858774;77;20862;-80
2020/12/13 06:39:20;;;;;;;25.17;12.77;;;;;;;0.72;91.32;96711.80;1859047;77;20906;-84
2020/12/13 06:41:51;;;;;;;20.70;11.93;;;;;;;0.74;91.46;96710.80;1857893;77;21430;-80
2020/12/13 06:44:18;;;;;;;22.03;11.57;;;;;;;0.75;91.34;96712.47;1858939;77;21001;-81
2020/12/13 06:46:47;;;;;;;23.30;11.18;;;;;;;0.79;91.37;96711.38;1858985;77;20997;-79
2020/12/13 06:49:17;;;;;;;23.80;13.03;;;;;;;0.83;91.26;96710.78;1858865;77;21155;-80
2020/12/13 06:51:47;;;;;;;28.30;13.37;;;;;;;0.86;91.08;96710.61;1858933;77;20993;-80
2020/12/13 06:54:18;;;;;;;26.63;13.60;;;;;;;0.89;90.98;96712.98;1858815;77;21337;-81
2020/12/13 06:56:46;;;;;;;21.42;12.28;;;;;;;0.93;90.83;96717.05;1859022;77;21155;-79
2020/12/13 06:59:14;;;;;;;25.77;13.83;;;;;;;0.94;90.69;96717.88;1859111;77;20902;-82
2020/12/13 07:01:43;;;;;;;31.03;15.13;;;;;;;0.94;90.59;96721.25;1859041;77;20868;-81
2020/12/13 07:04:46;;;;;;;29.77;17.02;;;;;;;0.96;90.59;96719.88;1859115;77;21251;-80
2020/12/13 07:07:19;;;;;;;23.73;13.55;;;;;;;0.99;90.60;96720.53;1858313;77;21483;-81
2020/12/13 07:09:40;;;;;;;30.50;14.60;;;;;;;1.02;90.35;96733.64;1857667;77;20906;-81
2020/12/13 07:12:09;;;;;;;41.60;21.40;;;;;;;0.99;89.96;96732.05;1859083;77;21409;-80
2020/12/13 07:14:39;;;;;;;62.60;34.40;;;;;;;0.95;90.15;96724.64;1833214;77;21119;-80
2020/12/13 07:17:08;;;;;;;52.37;31.10;;;;;;;0.94;90.34;96732.77;1859172;77;20965;-81
2020/12/13 07:19:39;;;;;;;35.73;19.82;;;;;;;0.95;90.32;96731.86;1859075;77;21004;-81
2020/12/13 07:22:10;;;;;;;26.50;15.03;;;;;;;0.99;90.47;96728.66;1859123;77;21103;-79
2020/12/13 07:24:41;;;;;;;18.65;10.55;;;;;;;1.01;90.48;96735.38;1858981;77;26469;-80
2020/12/13 07:27:09;;;;;;;22.27;12.13;;;;;;;1.04;90.45;96735.66;1859159;77;21095;-83
2020/12/13 07:29:36;;;;;;;22.97;11.30;;;;;;;1.03;90.30;96734.01;1859126;77;20921;-81
2020/12/13 07:32:05;;;;;;;23.80;13.00;;;;;;;1.01;90.18;96737.11;1859177;77;21162;-82
2020/12/13 07:34:32;;;;;;;22.03;11.83;;;;;;;0.97;90.16;96731.77;1858976;77;21332;-80
2020/12/13 07:36:59;;;;;;;22.50;10.77;;;;;;;0.95;90.25;96733.14;1857107;77;21064;-82
2020/12/13 07:39:29;;;;;;;24.77;12.83;;;;;;;0.96;90.52;96733.51;1856436;77;20974;-81
2020/12/13 07:41:56;;;;;;;22.50;12.77;;;;;;;1.00;90.55;96736.75;1856351;77;21406;-80
2020/12/13 07:44:25;;;;;;;23.98;13.60;;;;;;;1.03;90.34;96739.13;1855191;77;20966;-80
2020/12/13 07:46:52;;;;;;;23.30;12.47;;;;;;;1.05;90.35;96741.14;1856405;77;20945;-81
2020/12/13 07:49:21;;;;;;;22.20;12.30;;;;;;;1.06;90.13;96746.63;1856452;77;20894;-79
2020/12/13 07:51:50;;;;;;;24.53;13.97;;;;;;;1.04;90.12;96749.28;1856300;77;20961;-80
2020/12/13 07:54:22;;;;;;;28.60;14.77;;;;;;;1.04;90.10;96749.28;1856410;77;21367;-80
2020/12/13 07:56:58;;;;;;;27.73;14.73;;;;;;;1.03;90.16;96748.91;1856068;77;21383;-81
2020/12/13 07:59:28;;;;;;;26.30;13.62;;;;;;;1.06;90.37;96750.47;1856383;77;20933;-81
2020/12/13 08:01:57;;;;;;;22.07;12.40;;;;;;;1.11;90.43;96751.88;1856458;77;20965;-80
2020/12/13 08:04:36;;;;;;;23.50;12.90;;;;;;;1.18;90.33;96751.09;1856416;77;20933;-79
2020/12/13 08:07:11;;;;;;;22.77;13.53;;;;;;;1.20;90.20;96751.01;1851763;77;20866;-80
2020/12/13 08:09:41;;;;;;;26.60;14.77;;;;;;;1.24;90.13;96751.20;1842376;78;21178;-79
2020/12/13 08:12:13;;;;;;;28.37;15.13;;;;;;;1.25;89.99;96747.30;1842450;78;20958;-78
2020/12/13 08:14:49;;;;;;;23.60;14.13;;;;;;;1.30;89.95;96746.56;1832914;77;22688;-79
2020/12/13 08:17:17;;;;;;;25.60;14.20;;;;;;;1.25;89.74;96751.14;1779724;77;20972;-79
2020/12/13 08:19:51;;;;;;;25.77;15.53;;;;;;;1.24;89.82;96758.88;1849657;77;21421;-80
2020/12/13 08:22:25;;;;;;;22.27;12.88;;;;;;;1.25;89.87;96752.42;1837354;77;20927;-80
2020/12/13 08:24:59;;;;;;;28.73;15.25;;;;;;;1.25;89.91;96754.98;1818562;78;21068;-81
2020/12/13 08:27:36;;;;;;;22.20;13.62;;;;;;;1.24;89.77;96766.14;1830011;78;21488;-80
2020/12/13 08:30:05;;;;;;;25.02;14.87;;;;;;;1.24;89.82;96763.58;1810202;78;21000;-78
2020/12/13 08:32:35;;;;;;;24.70;14.68;;;;;;;1.25;89.74;96765.68;1859836;76;22140;-76
2020/12/13 08:35:12;;;;;;;25.32;13.30;;;;;;;1.25;89.72;96766.51;1795755;79;21015;-79
2020/12/13 08:37:56;;;;;;;25.00;12.63;;;;;;;1.27;89.91;96765.14;1832389;78;21393;-80
2020/12/13 08:40:37;;;;;;;25.13;14.03;;;;;;;1.33;89.94;96768.19;1857928;76;21110;-78
2020/12/13 08:43:05;;;;;;;24.70;11.95;;;;;;;1.34;89.82;96763.89;1846969;77;21318;-78
2020/12/13 08:45:32;;;;;;;23.67;12.80;;;;;;;1.36;89.90;96760.33;1831962;78;21211;-80
2020/12/13 08:48:03;;;;;;;23.83;12.73;;;;;;;1.41;89.86;96762.64;1831887;77;21402;-79
2020/12/13 08:50:40;;;;;;;25.48;14.43;;;;;;;1.45;89.65;96767.13;1867943;76;20894;-80
2020/12/13 08:53:25;;;;;;;24.55;11.53;;;;;;;1.45;89.40;96767.13;1865348;77;20901;-80
2020/12/13 08:56:07;;;;;;;22.62;12.03;;;;;;;1.39;89.35;96766.55;1832160;78;20974;-82
2020/12/13 08:58:52;;;;;;;21.77;11.25;;;;;;;1.36;89.48;96756.48;1854262;76;21361;-79
2020/12/13 09:01:25;;;;;;;24.35;13.00;;;;;;;1.35;89.58;96769.38;1847996;77;20939;-77
2020/12/13 09:03:53;;;;;;;21.82;11.85;;;;;;;1.34;89.80;96758.31;1848441;77;20924;-79
2020/12/13 09:06:32;;;;;;;25.25;12.53;;;;;;;1.35;89.80;96760.41;1836319;77;20907;-81
2020/12/13 09:09:11;;;;;;;22.48;12.15;;;;;;;1.32;89.84;96758.83;1848276;77;20919;-81
2020/12/13 09:11:38;;;;;;;23.55;13.30;;;;;;;1.30;89.99;96755.53;1826628;77;21867;-84
2020/12/13 09:14:05;;;;;;;19.27;10.87;;;;;;;1.26;89.94;96754.06;1815642;77;21212;-81
2020/12/13 09:16:34;;;;;;;21.30;10.20;;;;;;;1.24;90.00;96755.03;1783195;80;21551;-80
2020/12/13 09:19:10;;;;;;;20.90;10.97;;;;;;;1.22;90.16;96753.84;1817164;79;21300;-81
2020/12/13 09:21:57;;;;;;;22.37;11.55;;;;;;;1.23;90.34;96760.62;1784053;80;21139;-81
2020/12/13 09:24:31;;;;;;;27.77;11.93;;;;;;;1.24;90.33;96755.89;1783563;80;20985;-80
2020/12/13 09:27:14;;;;;;;18.63;10.73;;;;;;;1.25;90.42;96753.70;1783327;80;21371;-80
2020/12/13 09:29:41;;;;;;;18.57;10.35;;;;;;;1.28;90.52;96756.08;1783733;80;20926;-80
2020/12/13 09:32:09;;;;;;;18.90;10.03;;;;;;;1.31;90.58;96754.62;1783669;80;20910;-78
2020/12/13 09:34:40;;;;;;;21.87;10.08;;;;;;;1.33;90.41;96753.28;1816899;79;20935;-84
2020/12/13 09:37:12;;;;;;;15.78;8.95;;;;;;;1.31;90.26;96746.94;1784011;80;21144;-73
2020/12/13 09:39:40;;;;;;;16.77;7.85;;;;;;;1.28;90.27;96745.83;1785988;79;20981;-73
2020/12/13 09:42:10;;;;;;;20.13;9.63;;;;;;;1.28;90.52;96745.02;1835328;77;20916;-83
2020/12/13 09:44:47;;;;;;;;;;;;;;;1.29;90.66;96744.92;1809095;79;21025;-82
2020/12/13 09:47:11;;;;;;;24.50;14.97;;;;;;;1.34;90.69;96741.66;1791460;79;20262;-75
2020/12/13 09:49:38;;;;;;;28.10;17.12;;;;;;;1.40;90.64;96747.70;1783706;79;21448;-74
2020/12/13 09:52:06;;;;;;;33.67;18.62;;;;;;;1.42;90.57;96742.52;1781896;80;21144;-74
2020/12/13 09:54:33;;;;;;;33.00;19.80;;;;;;;1.42;90.33;96750.20;1801766;79;21007;-74
2020/12/13 09:57:00;;;;;;;35.60;18.67;;;;;;;1.39;90.36;96751.63;1804216;79;21092;-74
2020/12/13 09:59:27;;;;;;;23.90;13.20;;;;;;;1.35;90.37;96742.02;1800157;79;20904;-74
2020/12/13 10:01:55;;;;;;;18.17;10.57;;;;;;;1.35;90.44;96749.71;1799580;79;20998;-83
2020/12/13 10:04:23;;;;;;;22.13;12.28;;;;;;;1.32;90.59;96748.58;1770805;79;21397;-82
2020/12/13 10:09:23;;;;;;;19.57;10.57;;;;;;;1.33;90.81;96757.95;1801194;78;21392;-82
2020/12/13 10:11:51;;;;;;;19.62;10.70;;;;;;;1.33;90.73;96758.40;1783112;79;21024;-83
2020/12/13 10:14:22;;;;;;;21.00;11.22;;;;;;;1.28;90.67;96756.08;1789382;79;21184;-81
2020/12/13 10:16:49;;;;;;;19.90;10.05;;;;;;;1.26;90.96;96764.77;1802039;79;21020;-81
2020/12/13 10:19:17;;;;;;;19.12;9.65;;;;;;;1.26;90.87;96768.61;1788417;79;21017;-81
2020/12/13 10:21:45;;;;;;;19.73;9.95;;;;;;;1.24;91.04;96764.00;1787103;80;21139;-80
2020/12/13 10:24:12;;;;;;;18.45;9.18;;;;;;;1.25;91.31;96758.00;1787497;80;21159;-81
2020/12/13 10:26:39;;;;;;;27.02;12.50;;;;;;;1.24;91.32;96755.89;1817819;77;22052;-83
2020/12/13 10:29:08;;;;;;;21.68;11.93;;;;;;;1.21;91.35;96761.16;1846886;77;21005;-83
2020/12/13 10:31:43;;;;;;;22.87;11.80;;;;;;;1.21;91.35;96759.06;1788093;79;21444;-82
2020/12/13 10:34:11;;;;;;;29.67;17.92;;;;;;;1.20;91.50;96754.39;1816370;79;20920;-81
2020/12/13 10:36:39;;;;;;;27.77;15.28;;;;;;;1.21;91.55;96745.80;1816579;78;20939;-81
2020/12/13 10:39:22;;;;;;;20.95;12.80;;;;;;;1.22;91.58;96739.77;1818342;76;21131;-81
2020/12/13 10:41:56;;;;;;;21.45;12.70;;;;;;;1.22;91.44;96742.32;1780064;79;20938;-82
2020/12/13 10:44:31;;;;;;;32.20;15.57;;;;;;;1.19;91.54;96734.00;1803620;77;21024;-81
2020/12/13 10:47:00;;;;;;;30.37;14.95;;;;;;;1.20;91.59;96730.52;1807844;77;20917;-82
2020/12/13 10:49:33;;;;;;;35.78;19.50;;;;;;;1.23;91.78;96732.90;1749765;79;21304;-81
2020/12/13 10:52:04;;;;;;;41.57;20.70;;;;;;;1.26;91.88;96734.86;1790562;78;21432;-82
2020/12/13 10:54:37;;;;;;;31.95;16.17;;;;;;;1.31;91.72;96735.86;1814733;79;21013;-81
2020/12/13 10:57:11;;;;;;;24.65;13.80;;;;;;;1.32;91.61;96737.51;1815711;79;21040;-82
2020/12/13 10:59:53;;;;;;;24.72;12.60;;;;;;;1.34;91.46;96733.15;1804740;78;21154;-82
2020/12/13 11:02:31;;;;;;;27.80;14.47;;;;;;;1.36;91.50;96739.83;1794130;79;21547;-82
2020/12/13 11:05:07;;;;;;;28.27;15.58;;;;;;;1.40;91.58;96729.77;1804670;78;21378;-81
2020/12/13 11:07:45;;;;;;;31.73;17.77;;;;;;;1.47;91.55;96740.50;1768270;80;21342;-81
2020/12/13 11:10:18;;;;;;;41.53;25.20;;;;;;;1.51;91.22;96735.59;1764262;78;21543;-82
2020/12/13 11:12:52;;;;;;;40.67;21.07;;;;;;;1.50;90.97;96739.52;1824102;78;20941;-82
2020/12/13 11:15:34;;;;;;;33.73;19.80;;;;;;;1.48;90.87;96738.30;1775421;80;21021;-81
2020/12/13 11:18:04;;;;;;;28.85;15.83;;;;;;;1.44;90.91;96744.98;1823855;78;21026;-81
2020/12/13 11:20:37;;;;;;;27.40;17.57;;;;;;;1.44;90.94;96747.55;1827709;76;21086;-81
2020/12/13 11:23:15;;;;;;;27.85;17.05;;;;;;;1.43;91.06;96748.00;1817868;78;20931;-81
2020/12/13 11:25:47;;;;;;;27.17;16.27;;;;;;;1.46;91.09;96749.56;1811239;78;21283;-82
2020/12/13 11:28:14;;;;;;;30.10;17.50;;;;;;;1.50;91.13;96747.21;1799790;79;21338;-82
2020/12/13 11:30:44;;;;;;;44.75;23.67;;;;;;;1.54;91.08;96747.39;1819854;78;21932;-82
2020/12/13 11:33:20;;;;;;;38.50;22.87;;;;;;;1.58;90.97;96746.33;1799545;79;20964;-81
2020/12/13 11:36:00;;;;;;;39.42;19.67;;;;;;;1.60;90.78;96746.59;1819498;78;21044;-81
2020/12/13 11:38:43;;;;;;;34.95;20.00;;;;;;;1.60;90.68;96741.47;1803544;78;20926;-80
2020/12/13 11:41:29;;;;;;;30.48;18.55;;;;;;;1.61;90.74;96743.12;1786334;79;21039;-81
2020/12/13 11:44:20;;;;;;;26.40;17.42;;;;;;;1.63;90.91;96745.59;1831372;77;21101;-81
2020/12/13 11:46:48;;;;;;;28.98;17.92;;;;;;;1.67;91.06;96745.80;1832112;78;21564;-81
2020/12/13 11:49:20;;;;;;;35.95;20.65;;;;;;;1.68;91.07;96743.14;1805537;78;21262;-82